Allred, Tennessee
Current Conditions -  °F | °C
As of 5:53 PM on Sunday 23 Nov 2014 (Local Time) from KCSV Reporting Station
Overcast Overcast  
Wind Chill: 58°   Ceiling: 700
Heat Index: 58°   Visibility: 10mi
Dew Point: 53°   Wind: 12mph
Humidity: 84%   Direction: 170°S
Pressure: 29.54"   Gusts: 26mph
Location:  36.33°N, 85.19°W
Report Text: KCSV 232353Z AUTO 17010G23KT 10SM BKN007 OVC011 14/12 A2954 RMK AO2 PK WND 15026/2332 RAE22 CIG 005V009 SLP994 P0002 60054 T01440117 10144 20122 55008
Loading
Personal Weather Stations






























Interactive Weather Map New forecast layout! Learn more

10-Day Weather Forecast

Advertisements
Track Severe Weather on mobile